Lindsay, Canada
Current Conditions -  °F | °C
As of 9:37 AM on Monday 20 Oct 2014 (Local Time) from CYPQ Reporting Station
Moderate Rain Moderate Rain  
Wind Chill: 41°   Ceiling: 4300
Heat Index: 41°   Visibility: 5mi
Dew Point: 41°   Wind: 0mph
Humidity: 100%   Direction: NA
Pressure: 29.91"   Gusts: NA
Location:  44.35°N, 78.74°W
Report Text: CYPQ 201337Z AUTO 00000KT 5SM RA BR FEW033 BKN043 OVC050 05/05 A2991 RMK SLP135
Loading
Personal Weather Stations






























Interactive Weather Map
Tropical Storm Tracking
New forecast layout! Learn more

10-Day Weather Forecast

Advertisements
Track Severe Weather on mobile